Terminal Aerodrome Forecast
Issued by NWS Green Bay, WI

Home | Current Version | Previous Version | Text Only | Print | Product List | Glossary Off
Versions: 1 2 3 4 5 6 7 8 9 10 11 12 13 14 15 16 17 18 19 20 21 22 23 24 25 26 27 28 29 30 31 32 33 34

000
FTUS43 KGRB 230300 AAB
TAFGRB
TAF AMD
KGRB 230353Z 2304/2324 34012G20KT P6SM SCT090
     FM230500 34009KT P6SM FEW045
     FM231500 02010G17KT P6SM SCT045
      TEMPO 2316/2320 BKN045=

USA.gov is the U.S. government's official web portal to all federal, state and local government web resources and services.